Time;durP1;ratioP1;P1;durP2;ratioP2;P2;SDS_P1;SDS_P2;PMS_P1;PMS_P2;Temp;Humidity;BMP_temperature;BMP_pressure;BME280_temperature;BME280_humidity;BME280_pressure;Samples;Min_cycle;Max_cycle;Signal;HPM_P1;HPM_P2
2021/10/11 00:02:24;;;;;;;9.55;2.63;;;13.00;99.90;;;;;;4991261;28;20026;-88
2021/10/11 00:04:50;;;;;;;11.77;3.05;;;13.00;99.90;;;;;;4992750;28;20490;-88
2021/10/11 00:07:17;;;;;;;12.60;3.58;;;13.00;99.90;;;;;;4987973;28;20466;-88
2021/10/11 00:09:43;;;;;;;10.80;2.72;;;13.00;99.90;;;;;;4987748;28;20121;-87
2021/10/11 00:12:08;;;;;;;6.05;2.70;;;13.00;99.90;;;;;;4987879;28;20031;-88
2021/10/11 00:14:34;;;;;;;12.43;2.08;;;13.00;99.90;;;;;;4992430;28;20034;-88
2021/10/11 00:17:00;;;;;;;9.82;2.42;;;12.90;99.90;;;;;;4991693;28;20027;-88
2021/10/11 00:19:25;;;;;;;8.18;2.25;;;12.90;99.90;;;;;;4973172;28;20042;-88
2021/10/11 00:21:51;;;;;;;11.02;2.03;;;12.90;99.90;;;;;;4981061;28;20033;-87
2021/10/11 00:24:16;;;;;;;6.18;2.13;;;12.80;99.90;;;;;;4993755;28;20034;-87
2021/10/11 00:26:42;;;;;;;12.93;1.92;;;12.80;99.90;;;;;;4975331;28;20053;-88
2021/10/11 00:29:07;;;;;;;13.20;2.22;;;12.80;99.90;;;;;;4986636;28;20035;-87
2021/10/11 00:31:33;;;;;;;7.32;1.70;;;12.70;99.90;;;;;;4986654;28;20034;-88
2021/10/11 00:33:58;;;;;;;14.80;1.77;;;12.80;99.90;;;;;;4992487;28;20034;-88
2021/10/11 00:36:24;;;;;;;7.63;2.17;;;12.70;99.90;;;;;;4992742;28;20117;-88
2021/10/11 00:38:50;;;;;;;12.57;2.42;;;12.70;99.90;;;;;;4991359;28;20486;-87
2021/10/11 00:41:15;;;;;;;9.57;2.35;;;12.70;99.90;;;;;;4989872;28;20030;-88
2021/10/11 00:43:41;;;;;;;12.23;2.03;;;12.70;99.90;;;;;;4993016;28;20462;-88
2021/10/11 00:46:07;;;;;;;15.57;2.72;;;12.70;99.90;;;;;;4992353;28;20037;-88
2021/10/11 00:48:34;;;;;;;10.88;3.03;;;12.70;99.90;;;;;;4991531;28;20034;-89
2021/10/11 00:51:00;;;;;;;12.30;2.72;;;12.70;99.90;;;;;;4993925;28;20124;-88
2021/10/11 00:53:26;;;;;;;17.30;3.38;;;12.70;99.90;;;;;;4986497;28;20077;-87
2021/10/11 00:55:53;;;;;;;13.10;3.83;;;12.60;99.90;;;;;;4978270;28;20034;-88
2021/10/11 00:58:19;;;;;;;11.68;2.63;;;12.60;99.90;;;;;;4991599;28;20044;-87
2021/10/11 01:00:44;;;;;;;9.85;2.60;;;12.60;99.90;;;;;;4994200;28;20038;-88
2021/10/11 01:03:10;;;;;;;12.18;3.42;;;12.50;99.90;;;;;;4995204;28;20474;-88
2021/10/11 01:05:35;;;;;;;9.07;3.58;;;12.40;99.90;;;;;;4996124;28;20076;-87
2021/10/11 01:08:01;;;;;;;15.75;3.22;;;12.40;99.90;;;;;;4992187;28;20694;-87
2021/10/11 01:10:27;;;;;;;12.73;4.18;;;12.40;99.90;;;;;;4993918;28;20061;-87
2021/10/11 01:12:52;;;;;;;7.95;3.28;;;12.30;99.90;;;;;;4995641;28;20037;-88
2021/10/11 01:15:18;;;;;;;7.45;3.00;;;12.20;99.90;;;;;;4994690;28;20084;-88
2021/10/11 01:17:43;;;;;;;7.18;2.90;;;12.10;99.90;;;;;;4995826;28;20347;-87
2021/10/11 01:20:09;;;;;;;8.38;3.60;;;12.10;99.90;;;;;;4994648;28;20106;-87
2021/10/11 01:22:41;;;;;;;12.35;3.80;;;11.90;99.90;;;;;;4985435;28;20498;-89
2021/10/11 01:25:09;;;;;;;8.90;4.67;;;11.90;99.90;;;;;;5001334;28;20553;-88
2021/10/11 01:27:35;;;;;;;16.40;4.88;;;11.90;99.90;;;;;;4994716;28;20022;-88
2021/10/11 01:30:02;;;;;;;11.52;4.57;;;11.80;99.90;;;;;;4994826;28;20029;-88
2021/10/11 01:32:28;;;;;;;12.70;4.63;;;11.90;99.90;;;;;;4994305;28;20026;-88
2021/10/11 01:34:53;;;;;;;11.43;4.28;;;11.80;99.90;;;;;;4984088;28;20049;-89
2021/10/11 01:37:19;;;;;;;16.38;5.30;;;11.80;99.90;;;;;;4995471;28;20019;-89
2021/10/11 01:39:44;;;;;;;13.35;4.40;;;11.90;99.90;;;;;;4993231;28;20053;-88
2021/10/11 01:42:10;;;;;;;12.25;4.10;;;11.80;99.90;;;;;;4993587;28;20033;-88
2021/10/11 01:44:38;;;;;;;8.45;4.25;;;11.80;99.90;;;;;;4994765;28;20121;-88
2021/10/11 01:47:04;;;;;;;10.23;3.88;;;11.90;99.90;;;;;;4985943;28;20033;-88
2021/10/11 01:49:29;;;;;;;17.85;5.30;;;11.90;99.90;;;;;;4989119;28;20390;-89
2021/10/11 01:51:55;;;;;;;16.45;4.40;;;11.90;99.90;;;;;;4986431;28;20029;-88
2021/10/11 01:54:20;;;;;;;13.68;4.20;;;11.90;99.90;;;;;;4993002;28;20030;-88
2021/10/11 01:56:46;;;;;;;14.73;4.72;;;12.00;99.90;;;;;;4994070;28;20661;-88
2021/10/11 01:59:11;;;;;;;13.07;4.20;;;11.90;99.90;;;;;;4994660;28;20042;-89
2021/10/11 02:01:37;;;;;;;7.38;3.40;;;12.00;99.90;;;;;;4981051;28;20026;-88
2021/10/11 02:04:02;;;;;;;9.45;3.78;;;12.00;99.90;;;;;;4994602;28;20038;-90
2021/10/11 02:06:28;;;;;;;8.40;3.85;;;12.00;99.90;;;;;;4994680;28;20409;-89
2021/10/11 02:08:54;;;;;;;13.15;3.65;;;12.00;99.90;;;;;;4988815;28;20023;-89
2021/10/11 02:11:19;;;;;;;13.10;3.70;;;12.10;99.90;;;;;;4984740;28;20023;-89
2021/10/11 02:13:45;;;;;;;16.98;3.55;;;12.10;99.90;;;;;;4990911;28;20061;-88
2021/10/11 02:16:10;;;;;;;12.48;3.53;;;12.10;99.90;;;;;;4993960;28;20382;-88
2021/10/11 02:18:36;;;;;;;11.75;3.13;;;12.10;99.90;;;;;;4994047;28;20049;-89
2021/10/11 02:21:01;;;;;;;9.88;2.20;;;12.10;99.90;;;;;;4994142;28;20048;-89
2021/10/11 02:23:27;;;;;;;11.52;2.22;;;12.20;99.90;;;;;;4988266;28;20031;-89
2021/10/11 02:25:53;;;;;;;10.10;2.25;;;12.10;99.90;;;;;;4993545;28;20023;-88
2021/10/11 02:28:19;;;;;;;13.27;2.30;;;12.20;99.90;;;;;;4993959;28;20041;-88
2021/10/11 02:30:44;;;;;;;9.68;1.80;;;12.20;99.90;;;;;;4994334;28;20081;-88
2021/10/11 02:33:10;;;;;;;12.00;2.10;;;12.20;99.90;;;;;;4990138;28;20027;-89
2021/10/11 02:35:35;;;;;;;15.23;2.85;;;12.10;99.90;;;;;;4993939;28;20054;-88
2021/10/11 02:38:01;;;;;;;9.15;2.17;;;12.10;99.90;;;;;;4993499;28;20034;-88
2021/10/11 02:40:27;;;;;;;7.43;1.67;;;12.10;99.90;;;;;;4985179;28;20039;-89
2021/10/11 02:42:52;;;;;;;10.07;1.80;;;12.10;99.90;;;;;;4983104;28;20543;-89
2021/10/11 02:45:18;;;;;;;8.15;2.58;;;12.00;99.90;;;;;;4987636;28;20029;-88
2021/10/11 02:47:43;;;;;;;6.75;1.33;;;12.00;99.90;;;;;;4986082;28;20402;-88
2021/10/11 02:50:09;;;;;;;12.15;2.30;;;11.90;99.90;;;;;;4982255;28;20094;-88
2021/10/11 02:52:35;;;;;;;7.60;1.45;;;11.90;99.90;;;;;;4981388;28;20500;-89
2021/10/11 02:55:01;;;;;;;11.85;1.73;;;11.90;99.90;;;;;;4991733;28;20037;-89
2021/10/11 02:57:26;;;;;;;12.93;1.85;;;11.90;99.90;;;;;;4993132;28;20022;-88
2021/10/11 02:59:52;;;;;;;7.32;1.17;;;11.90;99.90;;;;;;4993591;28;20383;-88
2021/10/11 03:02:18;;;;;;;9.25;1.52;;;11.90;99.90;;;;;;4993725;28;20061;-88
2021/10/11 03:04:44;;;;;;;9.95;1.63;;;11.90;99.90;;;;;;4979600;28;20046;-88
2021/10/11 03:07:10;;;;;;;8.52;1.13;;;11.90;99.90;;;;;;4992495;28;20026;-88
2021/10/11 03:09:35;;;;;;;7.22;1.17;;;11.90;99.90;;;;;;4993245;28;20477;-88
2021/10/11 03:12:01;;;;;;;10.85;1.13;;;11.80;99.90;;;;;;4992636;28;20045;-88
2021/10/11 03:14:27;;;;;;;11.30;0.80;;;11.80;99.90;;;;;;4993117;28;20770;-88
2021/10/11 03:16:52;;;;;;;12.38;1.08;;;11.70;99.90;;;;;;4993252;28;20062;-88
2021/10/11 03:19:18;;;;;;;13.00;1.15;;;11.70;99.90;;;;;;4992138;28;20034;-88
2021/10/11 03:21:43;;;;;;;9.75;1.10;;;11.70;99.90;;;;;;4993200;28;20033;-88
2021/10/11 03:24:09;;;;;;;12.75;1.80;;;11.60;99.90;;;;;;4992787;28;20056;-88
2021/10/11 03:26:34;;;;;;;8.13;1.20;;;11.60;99.90;;;;;;4992916;28;20072;-88
2021/10/11 03:29:00;;;;;;;9.73;1.50;;;11.50;99.90;;;;;;4993019;28;20065;-88
2021/10/11 03:31:25;;;;;;;8.98;1.80;;;11.40;99.90;;;;;;4993190;28;20030;-87
2021/10/11 03:33:51;;;;;;;7.10;1.10;;;11.30;99.90;;;;;;4981925;28;20113;-88
2021/10/11 03:36:16;;;;;;;12.32;1.10;;;11.20;99.90;;;;;;4979797;28;20228;-88
2021/10/11 03:38:42;;;;;;;6.35;1.02;;;11.20;99.90;;;;;;4992697;28;20043;-89
2021/10/11 03:41:07;;;;;;;9.35;1.00;;;11.00;99.90;;;;;;4993102;28;20042;-89
2021/10/11 03:43:33;;;;;;;15.18;2.55;;;11.00;99.90;;;;;;4992672;28;20116;-88
2021/10/11 03:45:58;;;;;;;11.88;1.23;;;10.90;99.90;;;;;;4982742;28;20130;-88
2021/10/11 03:48:24;;;;;;;11.65;1.10;;;10.80;99.90;;;;;;4987349;28;20022;-88
2021/10/11 03:50:49;;;;;;;13.88;1.83;;;10.70;99.90;;;;;;4992825;28;20037;-88
2021/10/11 03:53:16;;;;;;;10.43;1.48;;;10.60;99.90;;;;;;4992723;28;20030;-89
2021/10/11 03:55:42;;;;;;;10.15;1.73;;;10.60;99.90;;;;;;4979126;28;20069;-88
2021/10/11 03:58:08;;;;;;;10.25;1.48;;;10.50;99.90;;;;;;4978366;28;20023;-89
2021/10/11 04:00:33;;;;;;;7.97;1.10;;;10.50;99.90;;;;;;4978742;28;20027;-88
2021/10/11 04:03:02;;;;;;;12.93;2.00;;;10.40;99.90;;;;;;4991046;28;20121;-88
2021/10/11 04:05:28;;;;;;;7.78;1.10;;;10.40;99.90;;;;;;4975592;28;20070;-88
2021/10/11 04:07:56;;;;;;;8.57;1.50;;;10.30;99.90;;;;;;4992559;28;20036;-88
2021/10/11 04:10:27;;;;;;;7.95;1.50;;;10.30;99.90;;;;;;4986820;28;20084;-87
2021/10/11 04:12:57;;;;;;;9.98;1.33;;;10.20;99.90;;;;;;4992468;28;20058;-89
2021/10/11 04:15:22;;;;;;;9.40;1.33;;;10.10;99.90;;;;;;4989624;28;20030;-87
2021/10/11 04:17:48;;;;;;;11.52;2.13;;;10.10;99.90;;;;;;4984335;28;20466;-88
2021/10/11 04:20:14;;;;;;;12.77;2.30;;;10.00;99.90;;;;;;4992431;28;20482;-88
2021/10/11 04:22:40;;;;;;;9.07;1.63;;;9.90;99.90;;;;;;4992287;28;20056;-88
2021/10/11 04:25:06;;;;;;;8.77;1.88;;;9.90;99.90;;;;;;4994616;28;20033;-88
2021/10/11 04:27:32;;;;;;;7.60;2.20;;;9.80;99.90;;;;;;4990081;28;20032;-87
2021/10/11 04:29:57;;;;;;;14.32;1.80;;;9.70;99.90;;;;;;4995954;28;20398;-88
2021/10/11 04:32:23;;;;;;;9.40;2.13;;;9.70;99.90;;;;;;4995830;28;20022;-89
2021/10/11 04:34:48;;;;;;;14.05;2.60;;;9.60;99.90;;;;;;4992962;28;20034;-88
2021/10/11 04:37:14;;;;;;;12.02;1.80;;;9.60;99.90;;;;;;4990263;28;20498;-88
2021/10/11 04:39:39;;;;;;;15.77;2.75;;;9.60;99.90;;;;;;4988973;28;20054;-88
2021/10/11 04:42:05;;;;;;;9.57;2.00;;;9.50;99.90;;;;;;4983512;28;20474;-88
2021/10/11 04:44:30;;;;;;;10.60;2.22;;;9.50;99.90;;;;;;4993809;28;20073;-88
2021/10/11 04:46:56;;;;;;;12.18;2.10;;;9.50;99.90;;;;;;4992303;28;20030;-87
2021/10/11 04:49:21;;;;;;;8.80;2.58;;;9.40;99.90;;;;;;4989699;28;20088;-89
2021/10/11 04:51:47;;;;;;;10.32;1.83;;;9.40;99.90;;;;;;4990128;28;20022;-89
2021/10/11 04:54:14;;;;;;;16.65;2.78;;;9.40;99.90;;;;;;4989426;28;20046;-88
2021/10/11 04:56:40;;;;;;;11.60;2.65;;;9.40;99.90;;;;;;4991740;28;20053;-88
2021/10/11 04:59:06;;;;;;;9.35;1.80;;;9.30;99.90;;;;;;4989878;28;20029;-87
2021/10/11 05:01:31;;;;;;;10.25;2.42;;;9.20;99.90;;;;;;4992233;28;20030;-87
2021/10/11 05:03:57;;;;;;;6.70;1.77;;;9.20;99.90;;;;;;4993908;28;20026;-87
2021/10/11 05:06:22;;;;;;;16.35;3.00;;;9.20;99.90;;;;;;4991339;28;20034;-87
2021/10/11 05:08:48;;;;;;;12.98;2.42;;;9.20;99.90;;;;;;4995656;28;20042;-88
2021/10/11 05:11:14;;;;;;;12.18;2.97;;;9.20;99.90;;;;;;4994915;28;20030;-89
2021/10/11 05:13:39;;;;;;;11.43;3.60;;;9.20;99.90;;;;;;4995297;28;20430;-87
2021/10/11 05:16:11;;;;;;;15.38;3.50;;;9.10;99.90;;;;;;4994055;28;20033;-88
2021/10/11 05:18:36;;;;;;;7.03;2.30;;;9.10;99.90;;;;;;4996432;28;20045;-89
2021/10/11 05:21:02;;;;;;;10.63;2.45;;;9.10;99.90;;;;;;4996399;28;20121;-88
2021/10/11 05:23:30;;;;;;;11.82;3.22;;;9.00;99.90;;;;;;4995014;28;20509;-89
2021/10/11 05:25:56;;;;;;;15.05;2.65;;;9.00;99.90;;;;;;4993007;28;20026;-88
2021/10/11 05:28:21;;;;;;;10.65;2.42;;;9.00;99.90;;;;;;4993813;28;20398;-88
2021/10/11 05:30:49;;;;;;;5.43;2.17;;;8.90;99.90;;;;;;4991460;28;20181;-88
2021/10/11 05:33:19;;;;;;;9.20;2.95;;;8.90;99.90;;;;;;4991665;28;20049;-88
2021/10/11 05:35:45;;;;;;;10.55;2.55;;;8.80;99.90;;;;;;4992309;28;20030;-88
2021/10/11 05:38:11;;;;;;;12.70;3.03;;;8.80;99.90;;;;;;4992583;28;20054;-89
2021/10/11 05:40:37;;;;;;;17.42;2.78;;;8.80;99.90;;;;;;4994040;28;20034;-87
2021/10/11 05:43:03;;;;;;;12.10;2.80;;;8.80;99.90;;;;;;4994474;28;20118;-89
2021/10/11 05:45:28;;;;;;;11.68;2.58;;;8.70;99.90;;;;;;4991323;28;20030;-88
2021/10/11 05:47:54;;;;;;;8.48;2.47;;;8.70;99.90;;;;;;4993081;28;20030;-87
2021/10/11 05:50:20;;;;;;;8.38;2.25;;;8.60;99.90;;;;;;4991192;28;20033;-87
2021/10/11 05:52:45;;;;;;;8.43;2.65;;;8.60;99.90;;;;;;4993001;28;20022;-88
2021/10/11 05:55:11;;;;;;;9.32;2.25;;;8.60;99.90;;;;;;4989389;28;20022;-88
2021/10/11 05:57:37;;;;;;;10.15;1.45;;;8.60;99.90;;;;;;4986390;28;20422;-88
2021/10/11 06:00:04;;;;;;;17.08;4.03;;;8.60;99.90;;;;;;4990024;28;20050;-88
2021/10/11 06:02:29;;;;;;;12.23;2.67;;;8.50;99.90;;;;;;4995972;28;20064;-89
2021/10/11 06:04:55;;;;;;;13.27;3.70;;;8.50;99.90;;;;;;4994881;28;20030;-89
2021/10/11 06:07:20;;;;;;;12.90;4.28;;;8.50;99.90;;;;;;4992709;28;20026;-88
2021/10/11 06:09:46;;;;;;;12.27;4.13;;;8.50;99.90;;;;;;4994895;28;20076;-88
2021/10/11 06:12:12;;;;;;;17.10;4.75;;;8.50;99.90;;;;;;4988965;28;20058;-90
2021/10/11 06:14:37;;;;;;;13.43;4.20;;;8.60;99.90;;;;;;4988687;28;20121;-89
2021/10/11 06:17:03;;;;;;;16.40;4.63;;;8.60;99.90;;;;;;4994923;28;20027;-89
2021/10/11 06:19:28;;;;;;;12.75;5.47;;;8.60;99.90;;;;;;4995518;28;20050;-88
2021/10/11 06:21:54;;;;;;;20.05;5.28;;;8.70;99.90;;;;;;4996125;28;20116;-88
2021/10/11 06:24:19;;;;;;;7.97;4.90;;;8.70;99.90;;;;;;4996000;28;20110;-88
2021/10/11 06:26:45;;;;;;;16.48;6.32;;;8.80;99.90;;;;;;4993085;28;20031;-89
2021/10/11 06:29:11;;;;;;;17.23;6.75;;;8.80;99.90;;;;;;4996019;28;20085;-88
2021/10/11 06:31:36;;;;;;;10.52;5.20;;;8.90;99.90;;;;;;4995707;28;20041;-87
2021/10/11 06:34:02;;;;;;;16.90;5.38;;;9.00;99.90;;;;;;4995914;28;20065;-88
2021/10/11 06:36:28;;;;;;;15.63;5.55;;;9.00;99.90;;;;;;4996192;28;20033;-89
2021/10/11 06:38:54;;;;;;;11.75;5.25;;;9.10;99.90;;;;;;4995123;28;20065;-88
2021/10/11 06:41:20;;;;;;;17.10;5.05;;;9.10;99.90;;;;;;4991899;28;20030;-88
2021/10/11 06:43:45;;;;;;;17.73;5.15;;;9.20;99.90;;;;;;4995786;28;20022;-89
2021/10/11 06:46:11;;;;;;;17.95;5.20;;;9.20;99.90;;;;;;4995276;28;20031;-88
2021/10/11 06:48:37;;;;;;;22.60;5.25;;;9.30;99.90;;;;;;4996315;28;20033;-88
2021/10/11 06:51:05;;;;;;;15.45;4.63;;;9.40;99.90;;;;;;4994412;28;20030;-88
2021/10/11 06:53:30;;;;;;;17.40;5.03;;;9.40;99.90;;;;;;4996373;28;20026;-88
2021/10/11 06:55:56;;;;;;;15.10;5.25;;;9.50;99.90;;;;;;4991489;28;20080;-88
2021/10/11 06:58:21;;;;;;;14.75;5.07;;;9.60;99.90;;;;;;4981123;28;20023;-91
2021/10/11 07:00:47;;;;;;;7.53;4.05;;;9.70;99.90;;;;;;4977875;28;20105;-90
2021/10/11 07:03:13;;;;;;;17.05;6.60;;;9.80;99.90;;;;;;4995362;28;20370;-88
2021/10/11 07:05:38;;;;;;;17.67;5.45;;;9.90;99.90;;;;;;4996708;28;20022;-90
2021/10/11 07:08:09;;;;;;;17.42;5.55;;;10.00;99.90;;;;;;4991297;28;20027;-89
2021/10/11 07:10:38;;;;;;;17.20;5.35;;;10.10;99.90;;;;;;4992848;28;20030;-89
2021/10/11 07:13:04;;;;;;;16.08;5.05;;;10.20;99.90;;;;;;4993459;28;20045;-87
2021/10/11 07:15:30;;;;;;;16.50;4.78;;;10.30;99.90;;;;;;4980746;28;20035;-88
2021/10/11 07:17:56;;;;;;;16.38;4.65;;;10.30;99.90;;;;;;4979052;28;20034;-90
2021/10/11 07:20:22;;;;;;;19.27;4.90;;;10.50;99.90;;;;;;4991588;28;20086;-90
2021/10/11 07:22:52;;;;;;;17.17;5.40;;;10.50;99.90;;;;;;4991785;28;20026;-91
2021/10/11 07:25:18;;;;;;;14.82;4.13;;;10.60;99.90;;;;;;4986462;28;20023;-89
2021/10/11 07:27:44;;;;;;;12.38;4.55;;;10.60;99.90;;;;;;4988641;28;20035;-89
2021/10/11 07:30:10;;;;;;;13.05;4.15;;;10.70;99.90;;;;;;4995201;28;20018;-91
2021/10/11 07:32:36;;;;;;;9.60;4.13;;;10.70;99.90;;;;;;4995637;28;20030;-90
2021/10/11 07:35:02;;;;;;;14.77;4.40;;;10.80;99.90;;;;;;4994548;28;20096;-89
2021/10/11 07:37:28;;;;;;;15.10;4.53;;;10.90;99.90;;;;;;4995365;28;20035;-90
2021/10/11 07:39:53;;;;;;;12.93;3.40;;;11.00;99.90;;;;;;4988183;28;20235;-86
2021/10/11 07:42:19;;;;;;;13.10;4.93;;;11.10;99.90;;;;;;4991769;28;20018;-86
2021/10/11 07:44:45;;;;;;;10.32;3.88;;;11.10;99.90;;;;;;4979151;28;20026;-87
2021/10/11 07:47:10;;;;;;;11.88;3.58;;;11.20;99.90;;;;;;4991523;28;20116;-88
2021/10/11 07:49:36;;;;;;;16.13;4.65;;;11.30;99.90;;;;;;4985374;28;20031;-87
2021/10/11 07:52:02;;;;;;;11.40;3.65;;;11.40;99.90;;;;;;4989693;28;20026;-87
2021/10/11 07:54:29;;;;;;;14.43;3.70;;;11.50;99.90;;;;;;4976266;28;20049;-87
2021/10/11 07:56:55;;;;;;;14.57;3.78;;;11.50;99.90;;;;;;4983176;28;20094;-88
2021/10/11 07:59:21;;;;;;;15.40;3.50;;;11.60;99.90;;;;;;4991800;28;20030;-88
2021/10/11 08:01:46;;;;;;;10.15;3.30;;;11.60;99.90;;;;;;4991774;28;20062;-88
2021/10/11 08:04:12;;;;;;;14.77;3.13;;;11.60;99.90;;;;;;4993348;28;20094;-87
2021/10/11 08:06:37;;;;;;;13.43;2.90;;;11.70;99.90;;;;;;4994597;28;20053;-87
2021/10/11 08:09:04;;;;;;;10.27;3.45;;;11.70;99.90;;;;;;4992398;28;20053;-87
2021/10/11 08:11:30;;;;;;;13.77;3.03;;;11.70;99.90;;;;;;4991003;28;20126;-87
2021/10/11 08:13:59;;;;;;;9.70;2.80;;;11.80;99.90;;;;;;4989011;28;20463;-89
2021/10/11 08:16:25;;;;;;;10.20;2.90;;;11.90;99.90;;;;;;4990536;28;20073;-89
2021/10/11 08:18:54;;;;;;;11.48;3.70;;;12.00;99.90;;;;;;4997275;28;20068;-89
2021/10/11 08:21:20;;;;;;;9.27;2.60;;;12.10;99.90;;;;;;4995635;28;20398;-90
2021/10/11 08:23:46;;;;;;;8.05;2.70;;;12.20;99.90;;;;;;4996487;28;20030;-88
2021/10/11 08:26:12;;;;;;;10.35;3.05;;;12.20;99.90;;;;;;4995343;28;20026;-89
2021/10/11 08:28:39;;;;;;;11.32;2.63;;;12.30;99.90;;;;;;4994558;28;20121;-89
2021/10/11 08:31:05;;;;;;;11.45;2.53;;;12.40;99.90;;;;;;4988460;28;20094;-89
2021/10/11 08:33:34;;;;;;;10.80;2.30;;;12.40;99.90;;;;;;4991478;28;20399;-91
2021/10/11 08:36:01;;;;;;;15.45;2.83;;;12.50;99.90;;;;;;4986542;28;20038;-89
2021/10/11 08:38:29;;;;;;;5.93;2.10;;;12.50;99.90;;;;;;4994219;28;20050;-88
2021/10/11 08:40:57;;;;;;;9.30;2.08;;;12.60;99.90;;;;;;4994120;28;21394;-89
2021/10/11 08:43:23;;;;;;;9.23;2.20;;;12.60;99.90;;;;;;4983581;28;20031;-89
2021/10/11 08:45:49;;;;;;;8.95;1.38;;;12.70;99.90;;;;;;4990093;28;20026;-89
2021/10/11 08:48:15;;;;;;;6.22;1.63;;;12.70;99.90;;;;;;4995764;28;20029;-88
2021/10/11 08:50:41;;;;;;;10.90;1.90;;;12.70;99.90;;;;;;4994216;28;20122;-89
2021/10/11 08:53:09;;;;;;;9.25;1.83;;;12.80;99.90;;;;;;4993598;28;20050;-88
2021/10/11 08:55:35;;;;;;;12.23;2.13;;;12.90;99.90;;;;;;4991558;28;20027;-88
2021/10/11 08:58:03;;;;;;;8.95;2.03;;;12.90;99.90;;;;;;4990825;28;20528;-90
2021/10/11 09:00:34;;;;;;;11.30;2.17;;;13.00;99.90;;;;;;4992624;28;20045;-88
2021/10/11 09:03:01;;;;;;;13.63;1.45;;;13.20;99.90;;;;;;4990071;28;20447;-88
2021/10/11 09:05:38;;;;;;;8.52;1.90;;;13.20;99.90;;;;;;4992406;28;20077;-89
2021/10/11 09:08:09;;;;;;;10.95;2.10;;;13.30;99.90;;;;;;4990380;28;20045;-88
2021/10/11 09:10:57;;;;;;;7.27;1.37;;;13.40;99.90;;;;;;4992242;28;20026;-87
2021/10/11 09:13:51;;;;;;;11.00;2.65;;;13.50;99.90;;;;;;4983473;28;20368;-87
2021/10/11 09:16:32;;;;;;;9.73;1.67;;;13.50;99.90;;;;;;4993666;28;20026;-88
2021/10/11 09:19:15;;;;;;;8.55;1.30;;;13.60;99.90;;;;;;4993888;28;20042;-89
2021/10/11 09:21:42;;;;;;;7.53;1.33;;;13.60;99.90;;;;;;4993008;28;20022;-87
2021/10/11 09:24:17;;;;;;;10.23;1.77;;;13.60;99.90;;;;;;4986841;28;20113;-88
2021/10/11 09:26:54;;;;;;;10.27;1.38;;;13.70;99.90;;;;;;4993638;28;20130;-88
2021/10/11 09:29:34;;;;;;;9.13;1.75;;;13.70;99.90;;;;;;4993804;28;20038;-86
2021/10/11 09:32:03;;;;;;;10.27;1.80;;;13.90;99.90;;;;;;4993900;28;20141;-88
2021/10/11 09:34:29;;;;;;;11.38;1.38;;;13.90;99.90;;;;;;4993900;28;20022;-87
2021/10/11 09:36:58;;;;;;;11.27;1.88;;;14.00;99.90;;;;;;4989227;28;20030;-87
2021/10/11 09:39:27;;;;;;;7.28;1.65;;;14.10;99.90;;;;;;4990468;28;20509;-86
2021/10/11 09:41:53;;;;;;;7.88;1.42;;;14.20;99.90;;;;;;4988868;28;20561;-86
2021/10/11 09:44:21;;;;;;;6.93;1.20;;;14.20;99.90;;;;;;4994806;28;20122;-87
2021/10/11 09:46:51;;;;;;;9.32;1.70;;;14.30;99.90;;;;;;4995910;28;20117;-87
2021/10/11 09:49:17;;;;;;;8.57;1.17;;;14.30;99.90;;;;;;4992766;28;20031;-87
2021/10/11 09:51:42;;;;;;;13.00;1.40;;;14.30;99.90;;;;;;4996414;28;20118;-86
2021/10/11 09:54:08;;;;;;;8.23;1.30;;;14.30;99.90;;;;;;4994048;28;20030;-85
2021/10/11 09:56:34;;;;;;;7.10;1.35;;;14.30;99.90;;;;;;4994759;28;20046;-87
2021/10/11 09:59:01;;;;;;;6.90;1.23;;;14.30;99.90;;;;;;4995621;28;20123;-86
2021/10/11 10:01:29;;;;;;;12.13;2.30;;;14.40;99.90;;;;;;4992122;28;20033;-87
2021/10/11 10:03:56;;;;;;;11.90;1.30;;;14.40;99.90;;;;;;4977419;28;20089;-86
2021/10/11 10:06:28;;;;;;;9.45;1.35;;;14.50;99.90;;;;;;4993196;28;20117;-86
2021/10/11 10:08:55;;;;;;;;;;;14.50;99.90;;;;;;4995064;28;20034;-87
2021/10/11 10:11:27;;;;;;;12.32;1.20;;;14.60;99.90;;;;;;4994945;28;20008;-88
2021/10/11 10:13:53;;;;;;;9.73;1.27;;;14.70;99.90;;;;;;4991063;28;20482;-88
2021/10/11 10:16:19;;;;;;;10.52;1.25;;;14.80;99.90;;;;;;4995774;28;20034;-88
2021/10/11 10:18:46;;;;;;;8.32;1.05;;;14.80;99.90;;;;;;4994497;28;20061;-89
2021/10/11 10:21:14;;;;;;;8.32;1.17;;;14.90;99.90;;;;;;4983743;28;20483;-87
2021/10/11 10:23:44;;;;;;;8.68;1.00;;;15.00;99.90;;;;;;4986240;28;20026;-88
2021/10/11 10:26:12;;;;;;;12.77;1.30;;;15.00;99.90;;;;;;4989477;28;20046;-88
2021/10/11 10:28:52;;;;;;;10.38;1.05;;;15.00;99.90;;;;;;4995849;28;20541;-88
2021/10/11 10:31:35;;;;;;;9.88;1.05;;;15.10;99.90;;;;;;4979993;28;20057;-86
2021/10/11 10:34:11;;;;;;;7.63;1.73;;;15.20;99.90;;;;;;4988662;28;20441;-87
2021/10/11 10:36:42;;;;;;;13.77;1.20;;;15.20;99.90;;;;;;4977384;28;20060;-87
2021/10/11 10:39:09;;;;;;;10.57;0.93;;;15.30;99.90;;;;;;4994931;28;20050;-87
2021/10/11 10:41:36;;;;;;;11.27;1.17;;;15.40;99.90;;;;;;4994112;28;20026;-85
2021/10/11 10:44:16;;;;;;;9.27;0.90;;;15.60;99.90;;;;;;4993770;28;20034;-85
2021/10/11 10:47:11;;;;;;;7.10;0.90;;;15.50;99.90;;;;;;4994172;28;20030;-87
2021/10/11 10:49:44;;;;;;;9.18;0.93;;;15.50;99.90;;;;;;4976429;28;20042;-87
2021/10/11 10:52:15;;;;;;;7.82;0.88;;;15.40;99.90;;;;;;4994592;28;20021;-87
2021/10/11 10:54:55;;;;;;;9.18;0.70;;;15.40;99.90;;;;;;4995305;28;20026;-87
2021/10/11 10:57:22;;;;;;;8.90;1.10;;;15.50;99.90;;;;;;4994922;28;20053;-86
2021/10/11 10:59:54;;;;;;;8.68;0.90;;;15.50;99.90;;;;;;4987295;28;20030;-88
2021/10/11 11:02:21;;;;;;;7.05;1.25;;;15.50;99.90;;;;;;4992000;28;20393;-86
2021/10/11 11:04:58;;;;;;;10.07;0.88;;;15.50;99.90;;;;;;4994549;28;20030;-85
2021/10/11 11:07:38;;;;;;;7.03;0.77;;;15.50;99.90;;;;;;4986136;28;20040;-87
2021/10/11 11:10:17;;;;;;;7.72;0.80;;;15.40;99.90;;;;;;4987975;28;20068;-85
2021/10/11 11:12:56;;;;;;;6.70;0.80;;;15.50;99.90;;;;;;4985028;28;20031;-85
2021/10/11 11:15:34;;;;;;;12.23;1.30;;;15.60;99.90;;;;;;4991699;28;20025;-85
2021/10/11 11:18:04;;;;;;;6.13;0.75;;;15.60;99.90;;;;;;4982605;28;20389;-85
2021/10/11 11:20:34;;;;;;;5.75;0.65;;;15.70;99.90;;;;;;4991762;28;20478;-86
2021/10/11 11:23:03;;;;;;;9.27;0.73;;;15.80;99.90;;;;;;4991952;28;20141;-85
2021/10/11 11:25:37;;;;;;;8.95;0.70;;;15.80;99.90;;;;;;4992193;28;20116;-86
2021/10/11 11:28:06;;;;;;;6.40;0.60;;;15.80;99.90;;;;;;4991971;28;20148;-85
2021/10/11 11:30:33;;;;;;;7.60;0.88;;;16.00;99.90;;;;;;4991601;28;20030;-86
2021/10/11 11:33:04;;;;;;;4.93;0.57;;;16.10;99.90;;;;;;4990643;28;20121;-86
2021/10/11 11:35:33;;;;;;;5.35;0.50;;;16.20;99.90;;;;;;4984688;28;20035;-86
2021/10/11 11:38:05;;;;;;;6.65;0.60;;;16.30;99.90;;;;;;4990399;28;20117;-85
2021/10/11 11:40:37;;;;;;;8.93;0.98;;;16.40;99.40;;;;;;4991420;28;20057;-85
2021/10/11 11:43:07;;;;;;;9.48;1.00;;;16.40;98.80;;;;;;4981545;28;20034;-85
2021/10/11 11:45:46;;;;;;;6.50;0.40;;;16.30;98.30;;;;;;4993037;28;20088;-86
2021/10/11 11:48:25;;;;;;;5.82;0.35;;;16.30;98.10;;;;;;5006526;28;20034;-86
2021/10/11 11:50:53;;;;;;;4.35;0.38;;;16.30;98.10;;;;;;4992925;28;20027;-86
2021/10/11 11:53:22;;;;;;;7.90;0.68;;;16.20;98.00;;;;;;4993299;28;20026;-85
2021/10/11 11:55:51;;;;;;;6.60;0.50;;;16.00;98.00;;;;;;4993712;28;20022;-86
2021/10/11 11:58:24;;;;;;;7.38;0.55;;;16.00;98.20;;;;;;4981674;28;20030;-87
2021/10/11 12:00:52;;;;;;;3.92;0.52;;;16.00;98.30;;;;;;4993561;28;20072;-87
2021/10/11 12:03:21;;;;;;;8.30;0.50;;;15.90;98.30;;;;;;4993117;28;20019;-86
2021/10/11 12:05:49;;;;;;;9.35;0.85;;;15.80;98.30;;;;;;4993004;28;20117;-86
2021/10/11 12:08:15;;;;;;;6.22;0.57;;;15.80;98.30;;;;;;4991960;28;20032;-86
2021/10/11 12:10:41;;;;;;;9.23;0.60;;;15.80;98.40;;;;;;4988147;28;20034;-86
2021/10/11 12:13:07;;;;;;;7.57;0.70;;;15.80;98.40;;;;;;4991164;28;20478;-92
2021/10/11 12:15:33;;;;;;;5.00;0.47;;;15.80;98.50;;;;;;4993706;28;20018;-94
2021/10/11 12:18:04;;;;;;;9.38;1.05;;;15.80;97.80;;;;;;4994133;28;20033;-87
2021/10/11 12:20:50;;;;;;;4.88;0.40;;;15.80;97.60;;;;;;4978800;28;20039;-86
2021/10/11 12:23:17;;;;;;;2.85;0.30;;;15.80;97.50;;;;;;4985336;28;20022;-85
2021/10/11 12:25:44;;;;;;;5.00;0.32;;;15.70;97.60;;;;;;4980640;28;20478;-85
2021/10/11 12:28:12;;;;;;;3.90;0.43;;;15.70;97.60;;;;;;4988035;28;20018;-90
2021/10/11 12:30:39;;;;;;;9.00;0.50;;;15.80;97.30;;;;;;4981351;28;20035;-90
2021/10/11 12:33:25;;;;;;;4.00;0.50;;;15.90;97.40;;;;;;4983665;28;20018;-90
2021/10/11 12:36:00;;;;;;;5.47;0.70;;;16.00;97.80;;;;;;4995407;28;20117;-86
2021/10/11 12:38:37;;;;;;;4.65;0.30;;;16.30;97.70;;;;;;4988625;28;20540;-85
2021/10/11 12:41:11;;;;;;;12.18;0.60;;;16.30;97.00;;;;;;4989169;28;20030;-86
2021/10/11 12:43:38;;;;;;;8.27;0.50;;;16.40;96.90;;;;;;4990715;28;20031;-87
2021/10/11 12:46:07;;;;;;;5.00;0.40;;;16.40;96.70;;;;;;4995189;28;20429;-87